sensor_id;sensor_type;location;lat;lon;timestamp;pressure;altitude;pressure_sealevel;temperature;humidity
26823;BME280;14852;51.910;8.878;2023-02-04T00:01:32;100978.91;;;9.17;59.47
26823;BME280;14852;51.910;8.878;2023-02-04T00:03:58;100988.44;;;9.16;59.39
26823;BME280;14852;51.910;8.878;2023-02-04T00:06:24;100984.97;;;9.16;59.61
26823;BME280;14852;51.910;8.878;2023-02-04T00:08:50;100982.38;;;9.16;59.42
26823;BME280;14852;51.910;8.878;2023-02-04T00:11:16;100986.75;;;9.14;59.77
26823;BME280;14852;51.910;8.878;2023-02-04T00:13:42;100981.69;;;9.11;59.51
26823;BME280;14852;51.910;8.878;2023-02-04T00:16:08;100977.28;;;9.13;59.46
26823;BME280;14852;51.910;8.878;2023-02-04T00:18:33;100981.69;;;9.11;59.88
26823;BME280;14852;51.910;8.878;2023-02-04T00:20:59;100993.72;;;9.12;59.59
26823;BME280;14852;51.910;8.878;2023-02-04T00:23:25;100990.38;;;9.08;59.82
26823;BME280;14852;51.910;8.878;2023-02-04T00:25:51;100990.38;;;9.08;59.64
26823;BME280;14852;51.910;8.878;2023-02-04T00:28:16;100989.50;;;9.09;59.87
26823;BME280;14852;51.910;8.878;2023-02-04T00:30:43;100983.47;;;9.08;59.69
26823;BME280;14852;51.910;8.878;2023-02-04T00:33:09;100978.25;;;9.10;59.61
26823;BME280;14852;51.910;8.878;2023-02-04T00:35:34;100995.53;;;9.10;59.80
26823;BME280;14852;51.910;8.878;2023-02-04T00:38:03;101003.34;;;9.08;59.71
26823;BME280;14852;51.910;8.878;2023-02-04T00:40:29;101002.50;;;9.07;59.76
26823;BME280;14852;51.910;8.878;2023-02-04T00:42:54;101000.78;;;9.06;59.96
26823;BME280;14852;51.910;8.878;2023-02-04T00:45:20;100997.31;;;9.07;59.85
26823;BME280;14852;51.910;8.878;2023-02-04T00:47:46;101005.97;;;9.06;59.79
26823;BME280;14852;51.910;8.878;2023-02-04T00:50:11;101014.56;;;9.08;59.70
26823;BME280;14852;51.910;8.878;2023-02-04T00:52:37;101024.06;;;9.10;59.82
26823;BME280;14852;51.910;8.878;2023-02-04T00:55:04;101024.84;;;9.12;60.07
26823;BME280;14852;51.910;8.878;2023-02-04T00:57:31;101029.13;;;9.13;59.91
26823;BME280;14852;51.910;8.878;2023-02-04T00:59:57;101030.84;;;9.14;59.98
26823;BME280;14852;51.910;8.878;2023-02-04T01:02:22;101031.69;;;9.14;59.94
26823;BME280;14852;51.910;8.878;2023-02-04T01:04:48;101036.84;;;9.16;59.88
26823;BME280;14852;51.910;8.878;2023-02-04T01:07:16;101055.84;;;9.16;59.71
26823;BME280;14852;51.910;8.878;2023-02-04T01:09:42;101058.44;;;9.16;59.92
26823;BME280;14852;51.910;8.878;2023-02-04T01:12:08;101055.03;;;9.14;59.79
26823;BME280;14852;51.910;8.878;2023-02-04T01:14:34;101049.88;;;9.13;59.92
26823;BME280;14852;51.910;8.878;2023-02-04T01:16:59;101050.75;;;9.12;60.04
26823;BME280;14852;51.910;8.878;2023-02-04T01:19:25;101055.06;;;9.13;59.95
26823;BME280;14852;51.910;8.878;2023-02-04T01:21:52;101065.44;;;9.13;60.01
26823;BME280;14852;51.910;8.878;2023-02-04T01:24:18;101074.03;;;9.15;60.13
26823;BME280;14852;51.910;8.878;2023-02-04T01:27:02;101078.38;;;9.14;60.01
26823;BME280;14852;51.910;8.878;2023-02-04T01:29:28;101071.44;;;9.15;59.89
26823;BME280;14852;51.910;8.878;2023-02-04T01:31:54;101087.84;;;9.15;59.83
26823;BME280;14852;51.910;8.878;2023-02-04T01:34:20;101090.47;;;9.14;59.93
26823;BME280;14852;51.910;8.878;2023-02-04T01:36:45;101087.88;;;9.14;60.07
26823;BME280;14852;51.910;8.878;2023-02-04T01:39:11;101093.06;;;9.14;60.45
26823;BME280;14852;51.910;8.878;2023-02-04T01:41:38;101093.94;;;9.14;60.39
26823;BME280;14852;51.910;8.878;2023-02-04T01:44:05;101103.44;;;9.14;60.26
26823;BME280;14852;51.910;8.878;2023-02-04T01:46:31;101106.88;;;9.14;60.25
26823;BME280;14852;51.910;8.878;2023-02-04T01:48:59;101115.53;;;9.15;60.25
26823;BME280;14852;51.910;8.878;2023-02-04T01:51:27;101112.97;;;9.13;60.27
26823;BME280;14852;51.910;8.878;2023-02-04T01:53:54;101112.09;;;9.13;60.39
26823;BME280;14852;51.910;8.878;2023-02-04T01:56:25;101114.69;;;9.13;60.46
26823;BME280;14852;51.910;8.878;2023-02-04T01:58:54;101125.13;;;9.11;60.53
26823;BME280;14852;51.910;8.878;2023-02-04T02:01:53;101125.94;;;9.13;60.75
26823;BME280;14852;51.910;8.878;2023-02-04T02:04:31;101127.78;;;9.10;60.55
26823;BME280;14852;51.910;8.878;2023-02-04T02:07:03;101126.06;;;9.08;60.50
26823;BME280;14852;51.910;8.878;2023-02-04T02:09:31;101128.56;;;9.12;60.65
26823;BME280;14852;51.910;8.878;2023-02-04T02:11:58;101125.13;;;9.11;60.82
26823;BME280;14852;51.910;8.878;2023-02-04T02:14:26;101126.81;;;9.12;60.69
26823;BME280;14852;51.910;8.878;2023-02-04T02:16:51;101135.50;;;9.11;60.80
26823;BME280;14852;51.910;8.878;2023-02-04T02:19:26;101129.50;;;9.09;60.86
26823;BME280;14852;51.910;8.878;2023-02-04T02:22:16;101133.88;;;9.07;60.99
26823;BME280;14852;51.910;8.878;2023-02-04T02:24:45;101133.16;;;9.00;61.25
26823;BME280;14852;51.910;8.878;2023-02-04T02:27:11;101140.16;;;8.97;61.29
26823;BME280;14852;51.910;8.878;2023-02-04T02:29:39;101146.25;;;8.96;61.11
26823;BME280;14852;51.910;8.878;2023-02-04T02:32:08;101156.66;;;8.94;61.41
26823;BME280;14852;51.910;8.878;2023-02-04T02:34:35;101174.81;;;8.93;61.19
26823;BME280;14852;51.910;8.878;2023-02-04T02:37:02;101179.22;;;8.89;61.63
26823;BME280;14852;51.910;8.878;2023-02-04T02:39:29;101180.25;;;8.82;61.63
26823;BME280;14852;51.910;8.878;2023-02-04T02:41:56;101184.63;;;8.79;61.67
26823;BME280;14852;51.910;8.878;2023-02-04T02:44:23;101195.97;;;8.75;61.66
26823;BME280;14852;51.910;8.878;2023-02-04T02:46:49;101191.75;;;8.70;61.70
26823;BME280;14852;51.910;8.878;2023-02-04T02:49:17;101196.09;;;8.68;61.82
26823;BME280;14852;51.910;8.878;2023-02-04T02:51:44;101193.63;;;8.64;61.86
26823;BME280;14852;51.910;8.878;2023-02-04T02:54:29;101205.72;;;8.63;61.87
26823;BME280;14852;51.910;8.878;2023-02-04T02:56:59;101210.13;;;8.58;61.73
26823;BME280;14852;51.910;8.878;2023-02-04T02:59:26;101203.34;;;8.53;62.00
26823;BME280;14852;51.910;8.878;2023-02-04T03:02:00;101217.97;;;8.55;61.68
26823;BME280;14852;51.910;8.878;2023-02-04T03:04:32;101208.53;;;8.53;61.63
26823;BME280;14852;51.910;8.878;2023-02-04T03:07:02;101208.56;;;8.51;61.74
26823;BME280;14852;51.910;8.878;2023-02-04T03:09:29;101213.75;;;8.51;61.48
26823;BME280;14852;51.910;8.878;2023-02-04T03:11:55;101210.31;;;8.51;61.73
26823;BME280;14852;51.910;8.878;2023-02-04T03:14:22;101207.72;;;8.51;61.60
26823;BME280;14852;51.910;8.878;2023-02-04T03:16:51;101215.50;;;8.51;61.49
26823;BME280;14852;51.910;8.878;2023-02-04T03:19:19;101220.66;;;8.51;61.36
26823;BME280;14852;51.910;8.878;2023-02-04T03:21:45;101231.88;;;8.51;61.49
26823;BME280;14852;51.910;8.878;2023-02-04T03:24:11;101227.59;;;8.50;61.46
26823;BME280;14852;51.910;8.878;2023-02-04T03:26:37;101224.94;;;8.53;61.53
26823;BME280;14852;51.910;8.878;2023-02-04T03:29:06;101237.81;;;8.56;61.24
26823;BME280;14852;51.910;8.878;2023-02-04T03:31:32;101234.38;;;8.56;61.44
26823;BME280;14852;51.910;8.878;2023-02-04T03:33:58;101240.41;;;8.55;61.31
26823;BME280;14852;51.910;8.878;2023-02-04T03:36:24;101244.69;;;8.57;61.07
26823;BME280;14852;51.910;8.878;2023-02-04T03:38:50;101252.50;;;8.56;61.40
26823;BME280;14852;51.910;8.878;2023-02-04T03:41:17;101256.06;;;8.52;61.16
26823;BME280;14852;51.910;8.878;2023-02-04T03:43:43;101263.81;;;8.52;61.21
26823;BME280;14852;51.910;8.878;2023-02-04T03:46:09;101280.22;;;8.52;61.38
26823;BME280;14852;51.910;8.878;2023-02-04T03:48:34;101273.31;;;8.53;61.54
26823;BME280;14852;51.910;8.878;2023-02-04T03:51:00;101267.28;;;8.51;61.07
26823;BME280;14852;51.910;8.878;2023-02-04T03:53:26;101275.94;;;8.50;60.95
26823;BME280;14852;51.910;8.878;2023-02-04T03:55:52;101278.56;;;8.48;61.34
26823;BME280;14852;51.910;8.878;2023-02-04T03:58:17;101284.59;;;8.49;61.09
26823;BME280;14852;51.910;8.878;2023-02-04T04:00:43;101290.69;;;8.46;60.95
26823;BME280;14852;51.910;8.878;2023-02-04T04:03:09;101291.56;;;8.45;60.85
26823;BME280;14852;51.910;8.878;2023-02-04T04:05:35;101297.59;;;8.46;60.93
26823;BME280;14852;51.910;8.878;2023-02-04T04:08:00;101301.09;;;8.43;60.64
26823;BME280;14852;51.910;8.878;2023-02-04T04:10:26;101308.06;;;8.41;60.93
26823;BME280;14852;51.910;8.878;2023-02-04T04:12:54;101310.72;;;8.38;60.66
26823;BME280;14852;51.910;8.878;2023-02-04T04:15:20;101320.19;;;8.39;60.73
26823;BME280;14852;51.910;8.878;2023-02-04T04:17:45;101321.09;;;8.37;60.51
26823;BME280;14852;51.910;8.878;2023-02-04T04:20:12;101334.06;;;8.35;60.69
26823;BME280;14852;51.910;8.878;2023-02-04T04:22:38;101331.50;;;8.33;60.70
26823;BME280;14852;51.910;8.878;2023-02-04T04:25:04;101341.84;;;8.33;60.49
26823;BME280;14852;51.910;8.878;2023-02-04T04:27:31;101349.66;;;8.32;60.53
26823;BME280;14852;51.910;8.878;2023-02-04T04:29:56;101354.00;;;8.30;60.41
26823;BME280;14852;51.910;8.878;2023-02-04T04:32:22;101360.06;;;8.29;60.27
26823;BME280;14852;51.910;8.878;2023-02-04T04:34:48;101369.53;;;8.30;60.54
26823;BME280;14852;51.910;8.878;2023-02-04T04:37:14;101360.06;;;8.29;60.49
26823;BME280;14852;51.910;8.878;2023-02-04T04:39:40;101361.75;;;8.30;60.40
26823;BME280;14852;51.910;8.878;2023-02-04T04:42:05;101360.84;;;8.31;60.49
26823;BME280;14852;51.910;8.878;2023-02-04T04:44:31;101360.06;;;8.27;60.63
26823;BME280;14852;51.910;8.878;2023-02-04T04:46:57;101366.19;;;8.23;60.51
26823;BME280;14852;51.910;8.878;2023-02-04T04:49:23;101370.59;;;8.18;60.34
26823;BME280;14852;51.910;8.878;2023-02-04T04:51:49;101364.56;;;8.18;60.67
26823;BME280;14852;51.910;8.878;2023-02-04T04:54:14;101372.28;;;8.19;60.36
26823;BME280;14852;51.910;8.878;2023-02-04T04:56:40;101386.91;;;8.22;60.35
26823;BME280;14852;51.910;8.878;2023-02-04T04:59:06;101394.66;;;8.23;60.34
26823;BME280;14852;51.910;8.878;2023-02-04T05:01:32;101392.06;;;8.25;60.11
26823;BME280;14852;51.910;8.878;2023-02-04T05:03:58;101386.88;;;8.23;60.55
26823;BME280;14852;51.910;8.878;2023-02-04T05:06:24;101389.47;;;8.25;60.30
26823;BME280;14852;51.910;8.878;2023-02-04T05:08:51;101392.94;;;8.24;59.99
26823;BME280;14852;51.910;8.878;2023-02-04T05:11:17;101401.56;;;8.23;60.08
26823;BME280;14852;51.910;8.878;2023-02-04T05:13:43;101402.44;;;8.23;60.08
26823;BME280;14852;51.910;8.878;2023-02-04T05:16:09;101405.00;;;8.23;59.99
26823;BME280;14852;51.910;8.878;2023-02-04T05:18:38;101412.81;;;8.22;60.49
26823;BME280;14852;51.910;8.878;2023-02-04T05:21:04;101415.41;;;8.22;60.45
26823;BME280;14852;51.910;8.878;2023-02-04T05:23:30;101415.41;;;8.20;60.50
26823;BME280;14852;51.910;8.878;2023-02-04T05:25:56;101411.09;;;8.21;60.26
26823;BME280;14852;51.910;8.878;2023-02-04T05:28:22;101405.06;;;8.20;60.53
26823;BME280;14852;51.910;8.878;2023-02-04T05:30:48;101412.03;;;8.17;60.35
26823;BME280;14852;51.910;8.878;2023-02-04T05:33:14;101416.41;;;8.13;60.40
26823;BME280;14852;51.910;8.878;2023-02-04T05:35:40;101422.47;;;8.12;60.18
26823;BME280;14852;51.910;8.878;2023-02-04T05:38:05;101417.28;;;8.12;60.43
26823;BME280;14852;51.910;8.878;2023-02-04T05:40:31;101425.09;;;8.08;60.53
26823;BME280;14852;51.910;8.878;2023-02-04T05:42:57;101433.81;;;8.05;60.20
26823;BME280;14852;51.910;8.878;2023-02-04T05:45:23;101432.97;;;8.03;60.46
26823;BME280;14852;51.910;8.878;2023-02-04T05:47:48;101442.44;;;8.04;60.35
26823;BME280;14852;51.910;8.878;2023-02-04T05:50:14;101445.06;;;8.03;60.36
26823;BME280;14852;51.910;8.878;2023-02-04T05:52:40;101448.56;;;7.98;60.51
26823;BME280;14852;51.910;8.878;2023-02-04T05:55:09;101452.97;;;7.93;60.62
26823;BME280;14852;51.910;8.878;2023-02-04T05:57:35;101464.28;;;7.85;60.55
26823;BME280;14852;51.910;8.878;2023-02-04T06:00:02;101466.94;;;7.82;60.98
26823;BME280;14852;51.910;8.878;2023-02-04T06:02:37;101466.13;;;7.75;60.75
26823;BME280;14852;51.910;8.878;2023-02-04T06:05:03;101469.69;;;7.70;60.72
26823;BME280;14852;51.910;8.878;2023-02-04T06:07:29;101476.63;;;7.64;60.83
26823;BME280;14852;51.910;8.878;2023-02-04T06:09:55;101476.66;;;7.61;60.90
26823;BME280;14852;51.910;8.878;2023-02-04T06:12:21;101472.44;;;7.56;60.92
26823;BME280;14852;51.910;8.878;2023-02-04T06:14:46;101487.13;;;7.54;61.16
26823;BME280;14852;51.910;8.878;2023-02-04T06:17:12;101486.34;;;7.49;60.84
26823;BME280;14852;51.910;8.878;2023-02-04T06:19:38;101488.09;;;7.45;61.03
26823;BME280;14852;51.910;8.878;2023-02-04T06:22:03;101490.72;;;7.41;61.09
26823;BME280;14852;51.910;8.878;2023-02-04T06:24:29;101489.94;;;7.36;61.08
26823;BME280;14852;51.910;8.878;2023-02-04T06:26:55;101500.31;;;7.33;61.11
26823;BME280;14852;51.910;8.878;2023-02-04T06:29:21;101500.31;;;7.31;61.24
26823;BME280;14852;51.910;8.878;2023-02-04T06:31:46;101508.97;;;7.28;61.03
26823;BME280;14852;51.910;8.878;2023-02-04T06:34:14;101509.00;;;7.25;60.95
26823;BME280;14852;51.910;8.878;2023-02-04T06:36:39;101504.75;;;7.20;61.07
26823;BME280;14852;51.910;8.878;2023-02-04T06:39:05;101507.47;;;7.08;61.21
26823;BME280;14852;51.910;8.878;2023-02-04T06:41:31;101507.56;;;6.96;61.10
26823;BME280;14852;51.910;8.878;2023-02-04T06:43:57;101525.72;;;6.91;61.40
26823;BME280;14852;51.910;8.878;2023-02-04T06:46:22;101524.88;;;6.89;61.29
26823;BME280;14852;51.910;8.878;2023-02-04T06:48:48;101524.91;;;6.87;61.31
26823;BME280;14852;51.910;8.878;2023-02-04T06:51:14;101524.03;;;6.87;61.15
26823;BME280;14852;51.910;8.878;2023-02-04T06:53:40;101520.59;;;6.85;61.19
26823;BME280;14852;51.910;8.878;2023-02-04T06:56:09;101529.22;;;6.82;61.48
26823;BME280;14852;51.910;8.878;2023-02-04T06:58:36;101538.69;;;6.82;61.32
26823;BME280;14852;51.910;8.878;2023-02-04T07:01:01;101554.25;;;6.79;61.09
26823;BME280;14852;51.910;8.878;2023-02-04T07:03:27;101552.53;;;6.79;61.21
26823;BME280;14852;51.910;8.878;2023-02-04T07:05:53;101556.00;;;6.77;61.00
26823;BME280;14852;51.910;8.878;2023-02-04T07:08:19;101556.00;;;6.77;61.08
26823;BME280;14852;51.910;8.878;2023-02-04T07:10:46;101559.44;;;6.77;61.16
26823;BME280;14852;51.910;8.878;2023-02-04T07:13:12;101566.31;;;6.80;61.13
26823;BME280;14852;51.910;8.878;2023-02-04T07:15:38;101563.69;;;6.83;61.04
26823;BME280;14852;51.910;8.878;2023-02-04T07:18:04;101565.41;;;6.82;60.70
26823;BME280;14852;51.910;8.878;2023-02-04T07:20:30;101568.91;;;6.77;60.84
26823;BME280;14852;51.910;8.878;2023-02-04T07:22:56;101575.88;;;6.69;60.72
26823;BME280;14852;51.910;8.878;2023-02-04T07:25:21;101580.19;;;6.64;61.12
26823;BME280;14852;51.910;8.878;2023-02-04T07:27:48;101584.50;;;6.66;60.95
26823;BME280;14852;51.910;8.878;2023-02-04T07:30:13;101585.31;;;6.70;61.08
26823;BME280;14852;51.910;8.878;2023-02-04T07:32:39;101588.72;;;6.76;60.92
26823;BME280;14852;51.910;8.878;2023-02-04T07:35:05;101579.19;;;6.83;60.88
26823;BME280;14852;51.910;8.878;2023-02-04T07:37:31;101586.03;;;6.90;60.69
26823;BME280;14852;51.910;8.878;2023-02-04T07:39:57;101585.09;;;6.96;60.57
26823;BME280;14852;51.910;8.878;2023-02-04T07:42:23;101588.53;;;6.98;60.65
26823;BME280;14852;51.910;8.878;2023-02-04T07:44:57;101584.31;;;6.86;60.42
26823;BME280;14852;51.910;8.878;2023-02-04T07:47:23;101592.16;;;6.78;60.79
26823;BME280;14852;51.910;8.878;2023-02-04T07:49:49;101599.91;;;6.78;60.85
26823;BME280;14852;51.910;8.878;2023-02-04T07:52:15;101603.28;;;6.82;60.83
26823;BME280;14852;51.910;8.878;2023-02-04T07:54:41;101605.88;;;6.83;60.62
26823;BME280;14852;51.910;8.878;2023-02-04T07:57:07;101611.78;;;6.98;60.94
26823;BME280;14852;51.910;8.878;2023-02-04T07:59:33;101611.53;;;7.28;60.32
26823;BME280;14852;51.910;8.878;2023-02-04T08:01:58;101607.69;;;7.69;59.70
26823;BME280;14852;51.910;8.878;2023-02-04T08:04:26;101608.44;;;8.47;58.65
26823;BME280;14852;51.910;8.878;2023-02-04T08:06:52;101615.59;;;8.88;57.56
26823;BME280;14852;51.910;8.878;2023-02-04T08:09:18;101624.28;;;8.86;57.61
26823;BME280;14852;51.910;8.878;2023-02-04T08:11:44;101623.63;;;8.71;57.75
26823;BME280;14852;51.910;8.878;2023-02-04T08:14:09;101631.56;;;8.59;58.29
26823;BME280;14852;51.910;8.878;2023-02-04T08:16:35;101623.78;;;9.15;57.69
26823;BME280;14852;51.910;8.878;2023-02-04T08:19:01;101612.84;;;10.34;55.31
26823;BME280;14852;51.910;8.878;2023-02-04T08:21:27;101614.50;;;10.75;53.50
26823;BME280;14852;51.910;8.878;2023-02-04T08:23:53;101611.94;;;11.43;52.86
26823;BME280;14852;51.910;8.878;2023-02-04T08:26:18;101614.44;;;12.39;51.26
26823;BME280;14852;51.910;8.878;2023-02-04T08:28:44;101616.88;;;13.75;48.83
26823;BME280;14852;51.910;8.878;2023-02-04T08:31:10;101626.22;;;14.96;46.61
26823;BME280;14852;51.910;8.878;2023-02-04T08:33:37;101615.38;;;15.86;45.15
26823;BME280;14852;51.910;8.878;2023-02-04T08:36:05;101617.78;;;16.28;44.51
26823;BME280;14852;51.910;8.878;2023-02-04T08:38:31;101621.28;;;16.67;44.56
26823;BME280;14852;51.910;8.878;2023-02-04T08:40:57;101617.13;;;16.80;44.16
26823;BME280;14852;51.910;8.878;2023-02-04T08:43:25;101619.88;;;17.13;43.87
26823;BME280;14852;51.910;8.878;2023-02-04T08:45:50;101617.72;;;17.04;44.04
26823;BME280;14852;51.910;8.878;2023-02-04T08:48:16;101620.66;;;17.15;44.36
26823;BME280;14852;51.910;8.878;2023-02-04T08:50:42;101625.88;;;17.32;44.24
26823;BME280;14852;51.910;8.878;2023-02-04T08:53:08;101642.81;;;16.73;44.96
26823;BME280;14852;51.910;8.878;2023-02-04T08:55:33;101645.09;;;16.98;44.88
26823;BME280;14852;51.910;8.878;2023-02-04T08:57:59;101642.91;;;17.77;43.67
26823;BME280;14852;51.910;8.878;2023-02-04T09:00:26;101641.38;;;18.37;41.97
26823;BME280;14852;51.910;8.878;2023-02-04T09:02:52;101637.31;;;17.48;42.76
26823;BME280;14852;51.910;8.878;2023-02-04T09:05:18;101648.97;;;15.97;45.34
26823;BME280;14852;51.910;8.878;2023-02-04T09:07:43;101650.56;;;15.40;46.69
26823;BME280;14852;51.910;8.878;2023-02-04T09:10:09;101661.75;;;14.80;47.12
26823;BME280;14852;51.910;8.878;2023-02-04T09:12:35;101668.66;;;13.64;48.17
26823;BME280;14852;51.910;8.878;2023-02-04T09:15:01;101679.97;;;12.84;49.93
26823;BME280;14852;51.910;8.878;2023-02-04T09:17:26;101686.63;;;12.37;50.89
26823;BME280;14852;51.910;8.878;2023-02-04T09:19:52;101673.88;;;11.97;51.04
26823;BME280;14852;51.910;8.878;2023-02-04T09:22:18;101687.50;;;11.74;50.61
26823;BME280;14852;51.910;8.878;2023-02-04T09:24:44;101687.63;;;12.33;49.87
26823;BME280;14852;51.910;8.878;2023-02-04T09:27:09;101687.53;;;13.21;47.86
26823;BME280;14852;51.910;8.878;2023-02-04T09:29:35;101685.94;;;13.68;46.15
26823;BME280;14852;51.910;8.878;2023-02-04T09:32:01;101680.78;;;14.38;45.20
26823;BME280;14852;51.910;8.878;2023-02-04T09:34:27;101680.69;;;14.87;44.72
26823;BME280;14852;51.910;8.878;2023-02-04T09:36:52;101684.50;;;14.78;44.79
26823;BME280;14852;51.910;8.878;2023-02-04T09:39:18;101683.91;;;14.25;45.42
26823;BME280;14852;51.910;8.878;2023-02-04T09:41:44;101689.50;;;14.62;45.33
26823;BME280;14852;51.910;8.878;2023-02-04T09:44:15;101683.09;;;15.56;44.14
26823;BME280;14852;51.910;8.878;2023-02-04T09:46:48;101687.22;;;16.59;42.53
26823;BME280;14852;51.910;8.878;2023-02-04T09:49:15;101686.97;;;17.71;41.51
26823;BME280;14852;51.910;8.878;2023-02-04T09:51:42;101688.44;;;18.43;40.85
26823;BME280;14852;51.910;8.878;2023-02-04T09:54:14;101692.81;;;18.11;40.85
26823;BME280;14852;51.910;8.878;2023-02-04T09:56:41;101709.94;;;16.79;43.29
26823;BME280;14852;51.910;8.878;2023-02-04T09:59:19;101705.78;;;15.97;44.77
26823;BME280;14852;51.910;8.878;2023-02-04T10:02:04;101717.59;;;15.66;44.63
26823;BME280;14852;51.910;8.878;2023-02-04T10:04:38;101715.97;;;15.84;44.71
26823;BME280;14852;51.910;8.878;2023-02-04T10:07:10;101712.06;;;15.92;43.80
26823;BME280;14852;51.910;8.878;2023-02-04T10:09:36;101709.91;;;16.22;43.51
26823;BME280;14852;51.910;8.878;2023-02-04T10:12:03;101712.75;;;15.77;43.87
26823;BME280;14852;51.910;8.878;2023-02-04T10:14:29;101717.59;;;14.57;45.13
26823;BME280;14852;51.910;8.878;2023-02-04T10:16:59;101719.81;;;13.71;46.46
26823;BME280;14852;51.910;8.878;2023-02-04T10:19:27;101729.59;;;14.14;46.18
26823;BME280;14852;51.910;8.878;2023-02-04T10:21:57;101736.63;;;14.37;44.82
26823;BME280;14852;51.910;8.878;2023-02-04T10:24:25;101736.16;;;14.51;45.94
26823;BME280;14852;51.910;8.878;2023-02-04T10:26:53;101740.25;;;14.80;46.88
26823;BME280;14852;51.910;8.878;2023-02-04T10:29:22;101739.88;;;14.44;46.49
26823;BME280;14852;51.910;8.878;2023-02-04T10:31:50;101738.81;;;13.75;46.79
26823;BME280;14852;51.910;8.878;2023-02-04T10:34:38;101748.63;;;13.42;48.17
26823;BME280;14852;51.910;8.878;2023-02-04T10:37:17;101741.47;;;13.73;48.80
26823;BME280;14852;51.910;8.878;2023-02-04T10:39:44;101736.06;;;14.29;47.55
26823;BME280;14852;51.910;8.878;2023-02-04T10:42:24;101741.97;;;14.81;45.88
26823;BME280;14852;51.910;8.878;2023-02-04T10:44:51;101741.72;;;15.52;44.54
26823;BME280;14852;51.910;8.878;2023-02-04T10:47:35;101743.75;;;15.88;43.70
26823;BME280;14852;51.910;8.878;2023-02-04T10:50:16;101737.53;;;16.50;43.21
26823;BME280;14852;51.910;8.878;2023-02-04T10:52:46;101732.63;;;16.61;41.90
26823;BME280;14852;51.910;8.878;2023-02-04T10:55:17;101737.03;;;16.79;42.66
26823;BME280;14852;51.910;8.878;2023-02-04T10:57:47;101738.03;;;16.95;41.48
26823;BME280;14852;51.910;8.878;2023-02-04T11:00:23;101740.75;;;17.11;41.01
26823;BME280;14852;51.910;8.878;2023-02-04T11:03:03;101733.56;;;16.79;40.39
26823;BME280;14852;51.910;8.878;2023-02-04T11:05:34;101730.47;;;16.50;40.24
26823;BME280;14852;51.910;8.878;2023-02-04T11:08:02;101739.75;;;16.00;41.26
26823;BME280;14852;51.910;8.878;2023-02-04T11:10:37;101738.91;;;15.99;42.06
26823;BME280;14852;51.910;8.878;2023-02-04T11:13:05;101746.47;;;16.05;42.08
26823;BME280;14852;51.910;8.878;2023-02-04T11:15:44;101737.81;;;16.23;41.49
26823;BME280;14852;51.910;8.878;2023-02-04T11:18:31;101738.41;;;16.30;42.23
26823;BME280;14852;51.910;8.878;2023-02-04T11:21:41;101747.63;;;16.00;42.69
26823;BME280;14852;51.910;8.878;2023-02-04T11:27:16;101746.69;;;15.38;42.58
26823;BME280;14852;51.910;8.878;2023-02-04T11:29:43;101746.25;;;15.05;43.31
26823;BME280;14852;51.910;8.878;2023-02-04T11:32:35;101746.41;;;14.79;43.23
26823;BME280;14852;51.910;8.878;2023-02-04T11:37:39;101738.00;;;14.47;44.47
26823;BME280;14852;51.910;8.878;2023-02-04T11:40:27;101739.16;;;14.40;44.56
26823;BME280;14852;51.910;8.878;2023-02-04T11:43:14;101755.66;;;13.93;44.83
26823;BME280;14852;51.910;8.878;2023-02-04T11:45:41;101757.72;;;13.57;45.25
26823;BME280;14852;51.910;8.878;2023-02-04T11:48:17;101755.78;;;13.37;46.00
26823;BME280;14852;51.910;8.878;2023-02-04T11:51:14;101760.88;;;13.40;46.78
26823;BME280;14852;51.910;8.878;2023-02-04T11:53:41;101756.91;;;13.28;47.63
26823;BME280;14852;51.910;8.878;2023-02-04T11:56:19;101756.00;;;13.29;47.76
26823;BME280;14852;51.910;8.878;2023-02-04T11:58:45;101761.03;;;13.35;48.37
26823;BME280;14852;51.910;8.878;2023-02-04T12:01:21;101760.78;;;13.43;47.78
26823;BME280;14852;51.910;8.878;2023-02-04T12:03:56;101756.72;;;13.34;48.05
26823;BME280;14852;51.910;8.878;2023-02-04T12:06:25;101749.84;;;13.32;48.25
26823;BME280;14852;51.910;8.878;2023-02-04T12:08:51;101759.47;;;13.30;47.53
26823;BME280;14852;51.910;8.878;2023-02-04T12:11:28;101759.31;;;13.06;46.91
26823;BME280;14852;51.910;8.878;2023-02-04T12:14:09;101767.78;;;12.85;46.39
26823;BME280;14852;51.910;8.878;2023-02-04T12:16:45;101758.75;;;12.67;45.47
26823;BME280;14852;51.910;8.878;2023-02-04T12:22:58;101768.25;;;12.08;45.36
26823;BME280;14852;51.910;8.878;2023-02-04T12:25:24;101769.56;;;11.90;44.87
26823;BME280;14852;51.910;8.878;2023-02-04T12:30:24;101773.16;;;11.86;45.10
26823;BME280;14852;51.910;8.878;2023-02-04T12:32:51;101772.44;;;11.80;44.48
26823;BME280;14852;51.910;8.878;2023-02-04T12:35:17;101777.06;;;11.67;44.29
26823;BME280;14852;51.910;8.878;2023-02-04T12:37:43;101776.50;;;11.54;44.44
26823;BME280;14852;51.910;8.878;2023-02-04T12:40:18;101777.81;;;11.37;44.38
26823;BME280;14852;51.910;8.878;2023-02-04T12:42:44;101783.22;;;11.29;44.68
26823;BME280;14852;51.910;8.878;2023-02-04T12:45:13;101782.47;;;11.22;44.55
26823;BME280;14852;51.910;8.878;2023-02-04T12:47:39;101788.69;;;11.17;44.21
26823;BME280;14852;51.910;8.878;2023-02-04T12:50:07;101785.34;;;11.10;44.60
26823;BME280;14852;51.910;8.878;2023-02-04T12:52:33;101780.34;;;11.01;44.45
26823;BME280;14852;51.910;8.878;2023-02-04T12:54:59;101790.00;;;10.96;44.74
26823;BME280;14852;51.910;8.878;2023-02-04T12:57:26;101784.78;;;10.96;44.70
26823;BME280;14852;51.910;8.878;2023-02-04T12:59:52;101787.47;;;10.93;44.69
26823;BME280;14852;51.910;8.878;2023-02-04T13:02:17;101794.41;;;10.94;44.55
26823;BME280;14852;51.910;8.878;2023-02-04T13:04:43;101795.38;;;10.88;44.31
26823;BME280;14852;51.910;8.878;2023-02-04T13:07:09;101792.03;;;10.83;44.64
26823;BME280;14852;51.910;8.878;2023-02-04T13:09:35;101790.13;;;10.90;44.55
26823;BME280;14852;51.910;8.878;2023-02-04T13:12:02;101791.84;;;10.91;44.86
26823;BME280;14852;51.910;8.878;2023-02-04T13:14:28;101785.13;;;10.81;44.64